OSOK1: Oswego hwy 160

                                SHEF ID:       OSOK1     Oswego hwy 160
STATION TYPE:

PRECIP STAGE RIV-FLOW VOLTAGE BAT-LOAD
in ft cfs volt volt
Ccp-Rev Ccp-Rev Ccp-Rev Ccp-Rev Ccp-Rev
(America/Chicago)
04/12 00:00 0.00 14.76 6009 12.79 12.52
04/12 01:00 0.00 14.93 6211 12.77 12.50
04/12 02:00 0.00 15.07 6379 12.75 12.48
04/12 03:00 0.00 15.19 6524 12.73 12.46
04/12 04:00 0.00 15.26 6609 12.71 12.44
04/12 05:00 0.00 15.30 6658 12.70 12.43
04/12 06:00 0.00 15.31 6670 12.68 12.42
04/12 07:00 0.00 15.30 6658 12.67 12.40
04/12 08:00 0.00 15.25 6597 12.76 12.44
04/12 09:00 0.00 15.18 6512 12.96 12.63
04/12 10:00 0.01 15.09 6404 13.74 13.05
04/12 11:00 0.08 14.97 6259 14.12 13.25
04/12 12:00 0.02 14.85 6116 14.21 13.24
04/12 13:00 0.02 14.72 5962 14.21 13.28
04/12 14:00 0.00 14.61 5832 13.82 13.26
04/12 15:00 0.00 14.46 5656 13.63 13.16
04/12 16:00 0.00 14.31 5482 13.44 13.05
04/12 17:00 0.00 14.16 5304 13.38 13.00
04/12 18:00 0.00 14.02 5131 13.44 12.96
04/12 19:00 0.00 13.87 4949 13.49 12.94
04/12 20:00 0.00 13.72 4768 13.05 12.84
04/12 21:00 0.00 13.58 4602 12.90 12.65
04/12 22:00 0.00 13.44 4430 12.84 12.57
04/12 23:00 0.00 13.31 4254 12.82 12.54
Data processed at Mon 13Apr2026 04:50 GMT

NOTICE: If you are parsing this page

Please convert to using our Data API. Starting early 2026 we will be migrating to: https://water.usace.army.mil with modern pages rendered in JavaScript. When this migration completes you will no longer be able to scrape this page! CWMSDataAPI (CDA)

Timeseries IDs (TSIDs)

TSIDs used from left to right in the data table
OSWN.Precip-Inc.Total.1Hour.1Hour.Ccp-Rev
OSWN.Stage.Inst.1Hour.0.Ccp-Rev
OSWN.Flow.Inst.1Hour.0.Ccp-Rev
OSWN.Volt-Battery.Inst.1Hour.0.Ccp-Rev
OSWN.Volt-Battery Load.Inst.1Hour.0.Ccp-Rev

                            

All information presented herein is the property of the government of the United States of America and may be revised or deleted at any time without prior notice. Dissemination of this information without the expressed written consent of the Public Affairs Office, Tulsa District U.S. Army Corps of Engineers is strictly prohibited. These data are gathered electronically and, as presented, have NOT undergone any form of quality control. These data are NOT guaranteed to be valid or correct.